createdAt,value
2019-06-01T00:03:25.388Z,14.50
2019-06-01T00:08:33.961Z,14.54
2019-06-01T00:13:39.519Z,14.25
2019-06-01T00:18:46.063Z,14.20
2019-06-01T00:23:52.947Z,14.27
2019-06-01T00:29:00.611Z,14.19
2019-06-01T00:34:06.261Z,14.12
2019-06-01T00:39:11.872Z,14.01
2019-06-01T00:44:20.612Z,13.88
2019-06-01T00:49:26.808Z,13.89
2019-06-01T00:54:33.437Z,13.75
2019-06-01T00:59:38.753Z,13.82
2019-06-01T01:04:44.339Z,13.72
2019-06-01T01:09:52.899Z,13.67
2019-06-01T01:14:58.674Z,13.68
2019-06-01T01:20:04.535Z,13.63
2019-06-01T01:25:09.884Z,13.66
2019-06-01T01:30:16.398Z,13.58
2019-06-01T01:35:22.255Z,13.51
2019-06-01T01:40:28.058Z,13.54
2019-06-01T01:45:33.302Z,13.42
2019-06-01T01:50:38.851Z,13.31
2019-06-01T01:55:44.711Z,13.25
2019-06-01T02:00:54.034Z,13.08
2019-06-01T02:05:59.054Z,13.08
2019-06-01T02:11:05.662Z,13.03
2019-06-01T02:16:11.661Z,12.93
2019-06-01T02:21:17.007Z,12.86
2019-06-01T02:26:22.358Z,13.02
2019-06-01T02:31:40.492Z,12.87
2019-06-01T02:36:34.742Z,12.78
2019-06-01T02:41:40.742Z,12.81
2019-06-01T02:46:46.914Z,12.86
2019-06-01T02:51:52.248Z,12.76
2019-06-01T02:56:57.950Z,12.61
2019-06-01T03:02:08.773Z,12.58
2019-06-01T03:07:11.827Z,12.48
2019-06-01T03:12:19.770Z,12.41
2019-06-01T03:17:25.415Z,12.35
2019-06-01T03:22:32.774Z,12.43
2019-06-01T03:27:40.040Z,12.41
2019-06-01T03:32:45.784Z,12.37
2019-06-01T03:37:51.267Z,12.29
2019-06-01T03:42:56.937Z,12.19
2019-06-01T03:48:02.590Z,12.15
2019-06-01T03:53:07.951Z,12.17
2019-06-01T03:58:13.565Z,12.29
2019-06-01T04:03:18.796Z,12.46
2019-06-01T04:08:24.031Z,12.36
2019-06-01T04:13:29.636Z,12.43
2019-06-01T04:18:34.943Z,12.52
2019-06-01T04:23:40.301Z,12.57
2019-06-01T04:28:45.630Z,12.57
2019-06-01T04:33:52.389Z,12.55
2019-06-01T04:38:57.641Z,12.63
2019-06-01T04:44:03.784Z,12.71
2019-06-01T04:49:10.536Z,12.84
2019-06-01T04:54:16.137Z,12.97
2019-06-01T04:59:21.459Z,13.19
2019-06-01T05:04:26.759Z,13.30
2019-06-01T05:09:32.040Z,13.30
2019-06-01T05:14:37.308Z,13.42
2019-06-01T05:19:42.647Z,13.66
2019-06-01T05:24:47.945Z,13.97
2019-06-01T05:29:53.450Z,14.32
2019-06-01T05:34:58.963Z,14.75
2019-06-01T05:40:04.620Z,15.26
2019-06-01T05:45:13.012Z,15.61
2019-06-01T05:50:20.551Z,16.02
2019-06-01T05:55:25.855Z,16.21
2019-06-01T06:00:42.664Z,16.74
2019-06-01T06:05:47.903Z,17.02
2019-06-01T06:10:53.546Z,17.34
2019-06-01T06:15:59.223Z,17.55
2019-06-01T06:21:04.764Z,18.00
2019-06-01T06:26:10.177Z,18.23
2019-06-01T06:31:15.489Z,18.65
2019-06-01T06:36:21.783Z,19.02
2019-06-01T06:41:27.093Z,19.25
2019-06-01T06:46:33.367Z,19.29
2019-06-01T06:51:38.598Z,19.86
2019-06-01T06:56:43.906Z,20.23
2019-06-01T07:01:51.855Z,20.46
2019-06-01T07:06:57.411Z,20.62
2019-06-01T07:12:03.683Z,21.07
2019-06-01T07:17:09.374Z,21.24
2019-06-01T07:22:16.943Z,21.49
2019-06-01T07:27:22.025Z,21.71
2019-06-01T07:32:28.657Z,22.08
2019-06-01T07:37:34.317Z,22.40
2019-06-01T07:42:39.629Z,22.60
2019-06-01T07:47:45.068Z,22.92
2019-06-01T07:52:50.437Z,23.13
2019-06-01T07:57:55.721Z,23.18
2019-06-01T08:03:01.065Z,23.61
2019-06-01T08:08:06.430Z,23.91
2019-06-01T08:13:12.005Z,23.98
2019-06-01T08:18:17.412Z,24.30
2019-06-01T08:23:24.116Z,24.58
2019-06-01T08:28:30.876Z,24.64
2019-06-01T08:33:36.279Z,24.44
2019-06-01T08:38:42.577Z,24.52
2019-06-01T08:43:47.989Z,24.41
2019-06-01T08:48:53.299Z,24.64
2019-06-01T08:54:00.886Z,24.84
2019-06-01T08:59:06.239Z,25.00
2019-06-01T09:04:11.507Z,24.71
2019-06-01T09:09:17.155Z,24.71
2019-06-01T09:14:31.700Z,24.76
2019-06-01T09:19:37.626Z,24.97
2019-06-01T09:24:45.383Z,25.24
2019-06-01T09:29:52.075Z,25.59
2019-06-01T09:34:57.702Z,25.92
2019-06-01T09:40:03.311Z,25.91
2019-06-01T09:45:09.864Z,26.07
2019-06-01T09:50:15.470Z,26.05
2019-06-01T09:55:21.338Z,26.15
2019-06-01T10:00:28.263Z,26.78
2019-06-01T10:05:34.837Z,26.66
2019-06-01T10:10:40.515Z,26.19
2019-06-01T10:15:46.537Z,26.65
2019-06-01T10:20:51.841Z,26.59
2019-06-01T10:25:57.306Z,26.82
2019-06-01T10:31:02.945Z,26.63
2019-06-01T10:36:19.964Z,26.71
2019-06-01T10:41:15.280Z,26.88
2019-06-01T10:46:22.148Z,26.72
2019-06-01T10:51:27.646Z,26.87
2019-06-01T10:59:00.507Z,26.93
2019-06-01T11:04:04.076Z,26.98
2019-06-01T11:09:10.477Z,27.01
2019-06-01T11:14:15.726Z,27.83
2019-06-01T11:19:21.220Z,27.59
2019-06-01T11:24:26.505Z,27.76
2019-06-01T11:29:31.846Z,28.19
2019-06-01T11:34:38.337Z,27.81
2019-06-01T11:39:44.895Z,28.26
2019-06-01T11:44:50.115Z,28.26
2019-06-01T11:49:55.368Z,28.47
2019-06-01T11:55:00.598Z,28.80
2019-06-01T12:00:09.422Z,29.03
2019-06-01T12:05:15.091Z,29.70
2019-06-01T12:10:20.324Z,30.13
2019-06-01T12:15:26.702Z,31.34
2019-06-01T12:20:32.526Z,31.91
2019-06-01T12:25:38.222Z,30.25
2019-06-01T12:30:43.827Z,30.00
2019-06-01T12:35:49.120Z,31.77
2019-06-01T12:40:54.402Z,33.27
2019-06-01T12:46:07.168Z,32.08
2019-06-01T12:51:07.042Z,32.21
2019-06-01T12:58:52.819Z,33.47
2019-06-01T13:03:58.524Z,32.18
2019-06-01T13:09:05.788Z,31.66
2019-06-01T13:14:11.173Z,34.20
2019-06-01T13:19:16.466Z,34.46
2019-06-01T13:24:21.797Z,35.44
2019-06-01T13:29:27.369Z,35.69
2019-06-01T13:34:34.125Z,37.48
2019-06-01T13:39:39.838Z,38.15
2019-06-01T13:44:45.490Z,37.46
2019-06-01T13:49:51.881Z,38.19
2019-06-01T13:54:57.426Z,39.69
2019-06-01T14:00:02.689Z,39.26
2019-06-01T14:05:08.138Z,39.90
2019-06-01T14:10:14.285Z,40.82
2019-06-01T14:15:20.188Z,40.88
2019-06-01T14:20:25.594Z,41.63
2019-06-01T14:25:31.201Z,42.52
2019-06-01T14:30:36.780Z,42.81
2019-06-01T14:35:42.128Z,42.58
2019-06-01T14:40:47.462Z,42.89
2019-06-01T14:45:54.199Z,43.38
2019-06-01T14:50:59.882Z,43.93
2019-06-01T14:56:06.258Z,43.52
2019-06-01T15:01:11.769Z,43.93
2019-06-01T15:06:20.574Z,43.30
2019-06-01T15:11:24.570Z,42.84
2019-06-01T15:16:29.911Z,43.25
2019-06-01T15:21:35.203Z,43.97
2019-06-01T15:26:41.683Z,43.56
2019-06-01T15:31:46.960Z,43.26
2019-06-01T15:36:53.518Z,42.62
2019-06-01T15:41:59.203Z,42.15
2019-06-01T15:47:05.164Z,41.81
2019-06-01T15:52:10.378Z,41.54
2019-06-01T15:57:15.631Z,41.28
2019-06-01T16:02:20.950Z,39.99
2019-06-01T16:07:26.638Z,39.03
2019-06-01T16:12:31.968Z,36.91
2019-06-01T16:17:37.346Z,35.44
2019-06-01T16:22:44.735Z,33.73
2019-06-01T16:27:50.341Z,32.55
2019-06-01T16:32:56.491Z,32.12
2019-06-01T16:38:02.865Z,31.52
2019-06-01T16:43:08.794Z,30.83
2019-06-01T16:48:14.232Z,30.50
2019-06-01T16:53:19.547Z,30.02
2019-06-01T16:58:25.158Z,29.86
2019-06-01T17:03:30.864Z,29.57
2019-06-01T17:08:36.209Z,29.35
2019-06-01T17:13:41.578Z,29.23
2019-06-01T17:18:47.790Z,28.89
2019-06-01T17:23:53.118Z,28.89
2019-06-01T17:29:00.057Z,28.65
2019-06-01T17:34:06.582Z,28.48
2019-06-01T17:39:12.299Z,28.34
2019-06-01T17:44:18.635Z,28.19
2019-06-01T17:49:24.033Z,28.01
2019-06-01T17:54:30.345Z,27.82
2019-06-01T17:59:35.641Z,27.75
2019-06-01T18:04:41.757Z,27.66
2019-06-01T18:09:47.343Z,27.43
2019-06-01T18:14:53.685Z,27.37
2019-06-01T18:19:59.285Z,27.30
2019-06-01T18:25:04.892Z,27.14
2019-06-01T18:30:11.062Z,26.99
2019-06-01T18:35:19.664Z,26.82
2019-06-01T18:40:25.403Z,26.55
2019-06-01T18:45:31.267Z,26.40
2019-06-01T18:50:36.639Z,26.21
2019-06-01T18:55:41.930Z,26.01
2019-06-01T19:00:52.979Z,25.91
2019-06-01T19:05:58.420Z,25.56
2019-06-01T19:11:03.670Z,25.35
2019-06-01T19:16:10.074Z,25.07
2019-06-01T19:21:15.343Z,24.77
2019-06-01T19:26:20.610Z,24.45
2019-06-01T19:31:25.960Z,24.10
2019-06-01T19:36:31.920Z,23.81
2019-06-01T19:41:44.717Z,23.52
2019-06-01T19:46:45.643Z,23.23
2019-06-01T19:51:50.958Z,22.99
2019-06-01T19:56:56.828Z,22.73
2019-06-01T20:02:02.575Z,22.59
2019-06-01T20:07:11.003Z,22.36
2019-06-01T20:12:18.557Z,22.10
2019-06-01T20:17:26.359Z,21.95
2019-06-01T20:22:31.607Z,21.79
2019-06-01T20:27:37.425Z,21.59
2019-06-01T20:32:43.195Z,21.35
2019-06-01T20:37:48.520Z,21.32
2019-06-01T20:42:53.790Z,21.17
2019-06-01T20:47:59.073Z,20.94
2019-06-01T20:53:05.569Z,20.78
2019-06-01T20:58:13.790Z,20.57
2019-06-01T21:03:19.777Z,20.43
2019-06-01T21:08:24.996Z,20.40
2019-06-01T21:13:30.305Z,20.30
2019-06-01T21:18:36.031Z,20.21
2019-06-01T21:23:42.671Z,20.08
2019-06-01T21:28:48.083Z,19.92
2019-06-01T21:33:53.792Z,19.71
2019-06-01T21:38:59.181Z,19.49
2019-06-01T21:44:04.813Z,19.27
2019-06-01T21:49:10.391Z,19.27
2019-06-01T21:57:22.351Z,19.18
2019-06-01T22:02:27.968Z,19.03
2019-06-01T22:07:33.268Z,18.96
2019-06-01T22:12:38.597Z,18.78
2019-06-01T22:17:44.257Z,18.65
2019-06-01T22:22:49.553Z,18.48
2019-06-01T22:27:55.117Z,18.40
2019-06-01T22:33:01.170Z,18.26
2019-06-01T22:38:06.510Z,18.03
2019-06-01T22:43:11.827Z,17.95
2019-06-01T22:48:17.102Z,17.96
2019-06-01T22:53:22.410Z,17.88
2019-06-01T22:58:27.789Z,17.72
2019-06-01T23:03:33.113Z,17.68
2019-06-01T23:08:38.895Z,17.67
2019-06-01T23:13:53.290Z,17.55
2019-06-01T23:18:52.834Z,17.38
2019-06-01T23:23:58.474Z,17.38
2019-06-01T23:29:03.997Z,17.32
2019-06-01T23:34:09.914Z,17.21
2019-06-01T23:39:15.480Z,17.02
2019-06-01T23:44:22.607Z,16.98
2019-06-01T23:49:29.239Z,16.88
2019-06-01T23:54:35.008Z,16.91
